Time;durP1;ratioP1;P1;durP2;ratioP2;P2;SDS_P1;SDS_P2;PMS_P1;PMS_P2;Temp;Humidity;BMP_temperature;BMP_pressure;BME280_temperature;BME280_humidity;BME280_pressure;Samples;Min_cycle;Max_cycle;Signal;HPM_P1;HPM_P2
2020/12/11 13:38:05;;;;;;;29.82;19.67;;;;;;;6.07;69.06;99398.23;2281143;83;25832;-81
2020/12/11 13:41:55;;;;;;;31.87;19.90;;;;;;;6.12;69.02;99400.96;2289449;84;26030;-87
2020/12/11 13:45:40;;;;;;;34.48;19.40;;;;;;;6.17;68.97;99399.34;2143718;89;26168;-81
2020/12/11 14:08:39;;;;;;;28.05;18.35;;;;;;;6.27;68.71;99393.99;2328963;83;26299;-83
2020/12/11 15:02:41;;;;;;;21.65;15.83;;;;;;;6.62;70.55;99363.78;2526671;75;26045;-86
2020/12/11 15:06:29;;;;;;;26.15;16.85;;;;;;;6.59;70.53;99365.88;2537323;75;26808;-83
2020/12/11 15:10:22;;;;;;;20.08;15.35;;;;;;;6.58;70.49;99367.12;2537133;75;28207;-83
2020/12/11 15:14:35;;;;;;;;;;;;;;;6.57;70.44;99363.66;2362652;80;25907;-81
2020/12/11 15:55:41;;;;;;;25.32;16.60;;;;;;;6.45;69.80;99360.80;2159558;85;26864;31
2020/12/11 15:59:48;;;;;;;19.70;15.53;;;;;;;6.47;69.71;99343.57;2549073;76;26667;-80
2020/12/11 16:03:32;;;;;;;26.82;16.17;;;;;;;6.42;69.68;99345.20;2471353;78;26263;-81
2020/12/11 16:12:05;;;;;;;21.70;16.32;;;;;;;6.41;69.59;99346.01;2475073;76;25882;-86
2020/12/11 16:26:05;;;;;;;26.37;17.80;;;;;;;6.40;69.42;99357.21;2507074;76;25789;-83
2020/12/11 16:29:36;;;;;;;22.80;16.67;;;;;;;6.37;69.38;99345.06;2529474;76;25785;-83
2020/12/11 16:33:16;;;;;;;22.95;16.32;;;;;;;6.36;69.32;99339.86;2516642;76;25799;-81
2020/12/11 16:36:38;;;;;;;26.97;17.37;;;;;;;6.37;69.28;99346.36;2527262;76;25694;-82
2020/12/11 16:45:07;;;;;;;28.38;18.05;;;;;;;6.36;69.20;99332.10;2472005;77;26210;-82
2020/12/11 16:58:06;;;;;;;30.52;19.50;;;;;;;6.35;69.06;99333.82;2420935;79;31140;-83
2020/12/11 17:02:02;;;;;;;29.23;18.15;;;;;;;6.34;69.00;99329.46;2439246;80;26028;-85
2020/12/11 17:09:39;;;;;;;26.37;17.07;;;;;;;6.32;68.94;99320.80;2428832;80;25640;-83
2020/12/11 17:13:13;;;;;;;34.30;20.08;;;;;;;6.33;68.90;99319.08;2434440;80;25762;-86
2020/12/11 17:16:46;;;;;;;25.30;17.82;;;;;;;6.33;68.87;99321.67;2439068;79;27021;-83
2020/12/11 17:20:05;;;;;;;26.25;18.40;;;;;;;6.32;68.81;99305.27;2430281;79;25916;-84
2020/12/11 17:24:05;;;;;;;29.25;18.35;;;;;;;6.33;68.82;99315.20;2412600;80;26217;-87
2020/12/11 17:28:05;;;;;;;29.33;17.87;;;;;;;6.37;68.76;99303.64;2491689;78;27352;-84
2020/12/11 17:31:42;;;;;;;29.52;19.37;;;;;;;6.34;68.75;99316.94;2421775;79;25819;-82
2020/12/11 17:35:03;;;;;;;34.70;20.08;;;;;;;6.32;68.70;99308.28;2403451;80;25688;-84
2020/12/11 17:38:21;;;;;;;31.60;18.50;;;;;;;6.32;68.71;99309.16;2399966;80;25858;-84
2020/12/11 17:41:47;;;;;;;29.27;18.30;;;;;;;6.32;68.68;99304.41;2399473;80;25988;-85
2020/12/11 17:45:08;;;;;;;32.45;19.15;;;;;;;6.30;68.67;99300.47;2390892;81;25716;-84
2020/12/11 17:48:30;;;;;;;31.52;19.15;;;;;;;6.31;68.64;99297.45;2394620;81;25978;-85
2020/12/11 17:51:52;;;;;;;32.67;18.90;;;;;;;6.30;68.63;99299.17;2410032;80;25677;-81
2020/12/11 17:55:15;;;;;;;32.40;18.90;;;;;;;6.30;68.61;99295.72;2384196;81;25764;-82
2020/12/11 17:58:39;;;;;;;26.87;16.55;;;;;;;6.32;69.80;99300.52;2387092;81;25780;-82
2020/12/11 18:02:00;;;;;;;33.23;16.75;;;;;;;6.49;69.71;99305.66;2395695;81;25676;-82
2020/12/11 18:05:26;;;;;;;30.68;17.75;;;;;;;6.50;69.54;99304.81;2398819;80;26289;-82
2020/12/11 18:09:00;;;;;;;29.55;18.52;;;;;;;6.50;69.46;99305.23;2364810;80;26028;-82
2020/12/11 18:13:37;;;;;;;30.12;17.02;;;;;;;6.48;69.42;99308.20;2357243;81;26251;-83
2020/12/11 18:18:08;;;;;;;31.15;17.73;;;;;;;6.46;69.40;99303.00;2237262;86;26191;-83
2020/12/11 18:22:13;;;;;;;26.42;17.87;;;;;;;6.46;69.35;99303.00;2225625;86;26233;-83
2020/12/11 18:25:43;;;;;;;33.18;17.92;;;;;;;6.45;69.30;99291.33;2230344;86;26023;-83
2020/12/11 18:29:04;;;;;;;27.37;17.85;;;;;;;6.44;69.28;99285.25;2247686;85;26057;-83
2020/12/11 18:37:36;;;;;;;30.62;17.60;;;;;;;6.44;69.22;99281.79;2060024;93;26025;-82
2020/12/11 19:00:09;;;;;;;33.53;19.32;;;;;;;6.42;69.04;99286.08;2322290;82;26602;-82
2020/12/11 19:03:32;;;;;;;33.48;18.42;;;;;;;6.43;69.02;99286.09;2333547;82;26005;-82
2020/12/11 19:06:54;;;;;;;26.50;16.87;;;;;;;6.42;69.00;99286.95;2374517;81;26110;-82
2020/12/11 19:10:36;;;;;;;32.53;17.77;;;;;;;6.46;68.99;99295.66;2385476;80;26049;-83
2020/12/11 19:14:04;;;;;;;31.62;18.10;;;;;;;6.47;68.96;99303.44;2345192;82;26207;-83
2020/12/11 19:17:55;;;;;;;28.07;17.48;;;;;;;6.47;68.95;99296.97;2370327;80;26163;-83
2020/12/11 19:21:28;;;;;;;30.97;18.00;;;;;;;6.47;68.91;99295.67;2325837;82;26220;-83
2020/12/11 19:25:01;;;;;;;30.32;17.30;;;;;;;6.49;68.89;99282.36;2360847;79;26387;-84
2020/12/11 19:29:03;;;;;;;31.75;18.77;;;;;;;6.50;68.84;99281.50;2400770;79;26097;-82
2020/12/11 19:32:42;;;;;;;34.70;19.12;;;;;;;6.51;68.82;99275.91;2389617;80;26095;-83
2020/12/11 19:36:05;;;;;;;31.62;17.92;;;;;;;6.52;68.79;99282.43;2351509;81;26056;-82
2020/12/11 19:39:33;;;;;;;31.23;18.45;;;;;;;6.52;68.79;99277.25;2384897;80;25749;-84
2020/12/11 19:43:01;;;;;;;28.15;17.67;;;;;;;6.52;68.79;99270.78;2344142;81;26100;-83
2020/12/11 19:46:23;;;;;;;30.55;18.05;;;;;;;6.54;68.75;99269.08;2373655;81;25688;-83
2020/12/11 19:49:45;;;;;;;33.30;17.95;;;;;;;6.55;68.73;99260.92;2370418;81;26402;-86
2020/12/11 19:53:06;;;;;;;32.10;17.75;;;;;;;6.56;68.72;99270.00;2365591;81;25835;-85
2020/12/11 19:56:28;;;;;;;26.07;15.63;;;;;;;6.57;68.69;99268.27;2358800;82;25806;-83
2020/12/11 19:59:51;;;;;;;26.00;13.78;;;;;;;6.57;70.06;99260.51;2378599;80;25853;-85
2020/12/11 20:03:18;;;;;;;20.75;12.95;;;;;;;6.89;71.02;99279.75;2347164;84;25714;-84
2020/12/11 20:06:57;;;;;;;22.02;13.75;;;;;;;7.01;71.09;99276.97;2366781;82;25846;-84
2020/12/11 20:10:13;;;;;;;23.83;13.58;;;;;;;7.05;70.76;99263.25;2356148;83;25782;-84
2020/12/11 20:13:34;;;;;;;25.40;15.80;;;;;;;7.03;70.67;99264.93;2354077;83;25764;-84
2020/12/11 20:16:56;;;;;;;24.00;15.15;;;;;;;7.05;70.53;99266.23;2379809;80;25685;-84
2020/12/11 20:25:42;;;;;;;25.77;14.18;;;;;;;7.01;70.41;99253.65;2355030;77;26180;-83
2020/12/11 20:29:03;;;;;;;26.30;15.65;;;;;;;6.99;70.35;99241.10;2353783;81;26010;-84
2020/12/11 20:32:28;;;;;;;24.65;15.13;;;;;;;7.00;70.28;99241.97;2302105;81;26263;-84
2020/12/11 20:36:05;;;;;;;23.35;14.15;;;;;;;7.00;70.26;99231.18;2323241;82;25682;-84
2020/12/11 20:40:01;;;;;;;23.83;14.03;;;;;;;7.00;70.22;99226.42;2376991;81;26094;-85
2020/12/11 20:52:57;;;;;;;20.90;14.55;;;;;;;7.01;70.10;99217.37;2206992;85;26071;-86
2020/12/11 21:00:54;;;;;;;20.62;12.43;;;;;;;7.03;70.04;99221.30;2212148;84;25827;-83
2020/12/11 21:09:59;;;;;;;15.23;9.88;;;;;;;7.24;70.46;99201.38;2181988;89;26118;-87
2020/12/11 21:13:59;;;;;;;17.73;10.90;;;;;;;7.25;70.69;99212.19;2158726;88;25943;-86
2020/12/11 21:42:21;;;;;;;;;;;;;;;;;;;;;
2020/12/11 22:07:36;;;;;;;;;;;;;;;;;;;;;
2020/12/11 22:11:02;;;;;;;10.50;8.70;;;;;;;7.68;71.00;99176.63;2418758;79;25815;-84
2020/12/11 22:14:23;;;;;;;11.93;9.13;;;;;;;7.64;70.93;99187.38;2410374;80;25624;-83
2020/12/11 22:17:47;;;;;;;9.83;8.68;;;;;;;7.61;70.88;99180.84;2438555;80;26073;-86
2020/12/11 22:21:09;;;;;;;10.10;8.63;;;;;;;7.57;70.83;99168.25;2450665;78;25404;-85
2020/12/11 22:28:25;;;;;;;12.53;9.50;;;;;;;7.57;70.75;99166.09;2580451;75;25574;-84
2020/12/11 22:31:47;;;;;;;14.58;9.65;;;;;;;7.49;70.71;99176.34;2498015;77;25632;-86
2020/12/11 22:35:10;;;;;;;12.68;9.63;;;;;;;7.47;70.67;99170.67;2489174;78;25662;-85
2020/12/11 22:39:00;;;;;;;14.40;10.25;;;;;;;7.44;70.65;99173.22;2483274;77;25786;-84
2020/12/11 22:42:29;;;;;;;12.55;10.13;;;;;;;7.43;70.62;99170.19;2512977;77;25671;-83
2020/12/11 22:45:52;;;;;;;9.10;8.08;;;;;;;7.41;70.61;99169.27;2491959;78;25363;-84
2020/12/11 22:49:14;;;;;;;11.93;9.18;;;;;;;7.38;70.58;99167.92;2489242;77;26011;-87
2020/12/11 22:52:36;;;;;;;12.88;9.73;;;;;;;7.38;70.54;99173.11;2515617;77;25705;-89
2020/12/11 22:55:57;;;;;;;13.95;10.78;;;;;;;7.37;70.54;99172.23;2528793;77;25811;-88
2020/12/11 22:59:19;;;;;;;14.30;10.32;;;;;;;7.35;70.51;99163.55;2523754;77;25700;-91
2020/12/11 23:03:03;;;;;;;16.40;10.23;;;;;;;7.34;70.50;99163.98;2499564;78;25399;-89
2020/12/11 23:06:25;;;;;;;13.53;9.63;;;;;;;7.33;70.49;99160.95;2455637;79;25863;-89
2020/12/11 23:09:48;;;;;;;15.00;10.38;;;;;;;7.32;70.47;99162.20;2466866;78;25774;-88
2020/12/11 23:13:09;;;;;;;13.55;11.00;;;;;;;7.31;70.46;99163.92;2402363;80;25658;-89
2020/12/11 23:16:31;;;;;;;14.23;9.50;;;;;;;7.30;70.42;99160.02;2482943;77;25925;-88
2020/12/11 23:19:58;;;;;;;12.23;10.18;;;;;;;7.29;70.42;99157.86;2521210;77;25381;-91
2020/12/11 23:23:25;;;;;;;13.00;8.98;;;;;;;7.29;70.42;99154.40;2503818;77;25736;-87
